createdAt,value
2018-11-04T00:00:55.442Z,16.33
2018-11-04T00:03:24.610Z,17.50
2018-11-04T00:05:53.781Z,17.53
2018-11-04T00:08:22.636Z,17.70
2018-11-04T00:10:51.282Z,16.50
2018-11-04T00:13:20.624Z,16.73
2018-11-04T00:15:49.599Z,16.83
2018-11-04T00:18:18.476Z,18.30
2018-11-04T00:20:47.266Z,19.10
2018-11-04T00:23:16.488Z,17.60
2018-11-04T00:25:45.695Z,18.13
2018-11-04T00:28:14.454Z,19.00
2018-11-04T00:30:43.296Z,16.80
2018-11-04T00:33:12.478Z,17.53
2018-11-04T00:35:41.612Z,17.50
2018-11-04T00:38:10.812Z,16.13
2018-11-04T00:40:39.481Z,16.27
2018-11-04T00:43:08.342Z,15.27
2018-11-04T00:45:37.260Z,17.77
2018-11-04T00:48:06.491Z,16.43
2018-11-04T00:50:35.393Z,15.77
2018-11-04T00:53:04.188Z,17.40
2018-11-04T00:55:32.910Z,17.17
2018-11-04T00:58:01.701Z,16.53
2018-11-04T01:00:30.948Z,18.00
2018-11-04T01:02:59.677Z,18.40
2018-11-04T01:05:28.333Z,17.67
2018-11-04T01:07:57.281Z,18.73
2018-11-04T01:10:25.871Z,20.70
2018-11-04T01:12:54.895Z,20.73
2018-11-04T01:15:23.976Z,18.27
2018-11-04T01:17:52.836Z,16.67
2018-11-04T01:20:21.551Z,15.77
2018-11-04T01:22:50.572Z,15.50
2018-11-04T01:25:19.362Z,17.37
2018-11-04T01:27:48.212Z,16.97
2018-11-04T01:30:16.823Z,16.33
2018-11-04T01:32:46.041Z,14.17
2018-11-04T01:35:14.829Z,14.30
2018-11-04T01:37:43.457Z,16.07
2018-11-04T01:40:12.171Z,14.73
2018-11-04T01:42:40.841Z,15.23
2018-11-04T01:45:11.054Z,14.83
2018-11-04T01:47:40.019Z,13.70
2018-11-04T01:50:12.307Z,15.50
2018-11-04T01:52:41.256Z,15.83
2018-11-04T01:55:10.822Z,16.47
2018-11-04T01:57:39.565Z,16.13
2018-11-04T02:00:12.321Z,14.67
2018-11-04T02:02:41.674Z,15.33
2018-11-04T02:05:11.222Z,15.87
2018-11-04T02:07:40.105Z,15.57
2018-11-04T02:10:10.750Z,15.63
2018-11-04T02:12:39.552Z,15.10
2018-11-04T02:15:09.900Z,14.93
2018-11-04T02:17:38.911Z,15.10
2018-11-04T02:20:09.115Z,15.83
2018-11-04T02:22:42.092Z,15.30
2018-11-04T02:25:12.350Z,14.87
2018-11-04T02:27:42.276Z,13.93
2018-11-04T02:30:12.986Z,14.20
2018-11-04T02:32:42.329Z,15.23
2018-11-04T02:35:11.666Z,16.17
2018-11-04T02:37:40.945Z,15.77
2018-11-04T02:40:10.366Z,14.37
2018-11-04T02:42:39.443Z,13.60
2018-11-04T02:45:08.747Z,13.73
2018-11-04T02:47:38.176Z,12.80
2018-11-04T02:50:07.632Z,15.33
2018-11-04T02:52:36.332Z,13.70
2018-11-04T02:55:05.337Z,14.97
2018-11-04T02:57:34.424Z,13.27
2018-11-04T03:00:03.277Z,15.13
2018-11-04T03:02:32.032Z,13.50
2018-11-04T03:05:00.942Z,14.60
2018-11-04T03:07:29.588Z,13.50
2018-11-04T03:09:58.199Z,14.90
2018-11-04T03:12:26.803Z,14.63
2018-11-04T03:14:55.836Z,14.17
2018-11-04T03:17:24.623Z,15.77
2018-11-04T03:19:53.711Z,13.93
2018-11-04T03:22:22.411Z,14.70
2018-11-04T03:24:51.326Z,14.83
2018-11-04T03:27:20.187Z,14.40
2018-11-04T03:29:49.171Z,14.57
2018-11-04T03:32:18.371Z,14.77
2018-11-04T03:34:47.429Z,14.37
2018-11-04T03:37:16.301Z,14.47
2018-11-04T03:39:45.028Z,14.57
2018-11-04T03:42:14.027Z,15.27
2018-11-04T03:44:42.696Z,16.80
2018-11-04T03:47:11.548Z,15.40
2018-11-04T03:49:40.456Z,14.90
2018-11-04T03:52:09.258Z,14.67
2018-11-04T03:54:38.131Z,15.57
2018-11-04T03:57:07.536Z,15.83
2018-11-04T03:59:36.436Z,14.83
2018-11-04T04:02:05.684Z,15.27
2018-11-04T04:04:34.289Z,15.07
2018-11-04T04:07:02.874Z,14.77
2018-11-04T04:09:31.607Z,14.27
2018-11-04T04:12:00.263Z,14.83
2018-11-04T04:14:29.160Z,14.80
2018-11-04T04:16:57.791Z,14.83
2018-11-04T04:19:26.574Z,16.07
2018-11-04T04:21:55.331Z,15.27
2018-11-04T04:24:24.043Z,15.40
2018-11-04T04:26:52.993Z,15.00
2018-11-04T04:29:21.641Z,14.60
2018-11-04T04:31:50.458Z,14.40
2018-11-04T04:34:19.023Z,15.97
2018-11-04T04:36:47.631Z,14.10
2018-11-04T04:39:16.661Z,14.67
2018-11-04T04:41:45.666Z,17.77
2018-11-04T04:44:14.285Z,17.37
2018-11-04T04:46:43.106Z,14.97
2018-11-04T04:49:11.987Z,14.37
2018-11-04T04:51:40.562Z,14.57
2018-11-04T04:54:09.151Z,13.77
2018-11-04T04:56:37.707Z,15.07
2018-11-04T04:59:06.451Z,13.70
2018-11-04T05:01:35.031Z,13.97
2018-11-04T05:04:03.874Z,13.73
2018-11-04T05:06:32.512Z,14.47
2018-11-04T05:09:01.252Z,13.67
2018-11-04T05:11:29.904Z,13.37
2018-11-04T05:13:58.757Z,14.20
2018-11-04T05:16:27.531Z,13.83
2018-11-04T05:18:56.756Z,13.70
2018-11-04T05:21:25.541Z,13.90
2018-11-04T05:23:54.380Z,14.20
2018-11-04T05:26:23.170Z,13.43
2018-11-04T05:28:51.830Z,14.03
2018-11-04T05:31:20.790Z,14.03
2018-11-04T05:33:49.677Z,13.37
2018-11-04T05:36:18.642Z,13.40
2018-11-04T05:38:47.222Z,13.07
2018-11-04T05:41:16.095Z,13.40
2018-11-04T05:43:45.118Z,13.03
2018-11-04T05:46:13.830Z,13.70
2018-11-04T05:48:42.511Z,13.30
2018-11-04T05:51:11.708Z,12.97
2018-11-04T05:53:41.522Z,12.73
2018-11-04T05:56:10.913Z,13.17
2018-11-04T05:58:39.915Z,14.43
2018-11-04T06:01:09.056Z,14.30
2018-11-04T06:03:38.031Z,15.37
2018-11-04T06:06:06.618Z,12.43
2018-11-04T06:08:35.402Z,12.20
2018-11-04T06:11:04.160Z,13.17
2018-11-04T06:13:32.982Z,12.70
2018-11-04T06:16:01.786Z,13.70
2018-11-04T06:18:30.556Z,13.37
2018-11-04T06:20:59.202Z,12.30
2018-11-04T06:23:27.995Z,13.07
2018-11-04T06:25:57.007Z,12.57
2018-11-04T06:28:25.665Z,12.03
2018-11-04T06:30:54.855Z,12.53
2018-11-04T06:33:23.593Z,12.97
2018-11-04T06:35:52.386Z,12.60
2018-11-04T06:38:21.493Z,14.60
2018-11-04T06:40:50.326Z,13.83
2018-11-04T06:43:19.122Z,13.27
2018-11-04T06:45:48.008Z,13.80
2018-11-04T06:48:16.677Z,14.20
2018-11-04T06:50:45.775Z,13.83
2018-11-04T06:53:14.471Z,12.80
2018-11-04T06:55:43.383Z,13.70
2018-11-04T06:58:12.391Z,14.00
2018-11-04T07:00:41.047Z,13.93
2018-11-04T07:03:10.032Z,12.27
2018-11-04T07:05:38.757Z,14.03
2018-11-04T07:08:07.476Z,13.93
2018-11-04T07:10:36.501Z,14.07
2018-11-04T07:13:05.228Z,19.57
2018-11-04T07:15:34.157Z,14.67
2018-11-04T07:18:02.857Z,12.90
2018-11-04T07:20:31.577Z,12.83
2018-11-04T07:23:00.641Z,13.57
2018-11-04T07:25:29.621Z,13.70
2018-11-04T07:27:58.713Z,13.93
2018-11-04T07:30:27.492Z,14.00
2018-11-04T07:32:56.476Z,13.43
2018-11-04T07:35:25.873Z,14.40
2018-11-04T07:37:54.693Z,13.63
2018-11-04T07:40:23.622Z,13.73
2018-11-04T07:42:52.426Z,14.73
2018-11-04T07:45:21.807Z,15.50
2018-11-04T07:47:50.932Z,15.10
2018-11-04T07:50:19.521Z,15.13
2018-11-04T07:52:48.366Z,15.87
2018-11-04T07:55:17.331Z,15.93
2018-11-04T07:57:46.022Z,15.20
2018-11-04T08:00:16.212Z,15.63
2018-11-04T08:02:45.447Z,16.47
2018-11-04T08:05:14.248Z,15.83
2018-11-04T08:07:43.133Z,16.33
2018-11-04T08:10:13.218Z,17.47
2018-11-04T08:12:42.187Z,17.53
2018-11-04T08:15:11.469Z,16.70
2018-11-04T08:17:40.633Z,17.80
2018-11-04T08:20:09.953Z,17.63
2018-11-04T08:22:39.028Z,18.40
2018-11-04T08:25:07.904Z,17.13
2018-11-04T08:27:36.833Z,18.17
2018-11-04T08:30:06.939Z,18.20
2018-11-04T08:32:35.642Z,18.40
2018-11-04T08:35:04.683Z,17.13
2018-11-04T08:37:33.887Z,18.70
2018-11-04T08:40:03.150Z,17.97
2018-11-04T08:42:32.417Z,17.90
2018-11-04T08:45:01.397Z,18.30
2018-11-04T08:47:30.386Z,17.53
2018-11-04T08:49:59.389Z,19.10
2018-11-04T08:52:28.368Z,17.63
2018-11-04T08:54:57.463Z,19.53
2018-11-04T08:57:26.213Z,22.80
2018-11-04T08:59:55.138Z,23.50
2018-11-04T09:02:23.831Z,24.10
2018-11-04T09:04:52.752Z,27.17
2018-11-04T09:07:22.008Z,27.43
2018-11-04T09:09:51.433Z,26.03
2018-11-04T09:12:20.254Z,26.60
2018-11-04T09:14:49.398Z,26.80
2018-11-04T09:17:18.552Z,26.87
2018-11-04T09:19:47.303Z,28.10
2018-11-04T09:22:16.141Z,28.57
2018-11-04T09:24:45.053Z,29.33
2018-11-04T09:27:13.848Z,29.50
2018-11-04T09:29:42.459Z,29.77
2018-11-04T09:32:11.023Z,30.63
2018-11-04T09:34:40.249Z,27.80
2018-11-04T09:37:08.833Z,28.50
2018-11-04T09:39:37.656Z,27.70
2018-11-04T09:42:06.578Z,27.43
2018-11-04T09:44:35.561Z,27.83
2018-11-04T09:47:04.766Z,29.27
2018-11-04T09:49:33.425Z,28.20
2018-11-04T09:52:02.207Z,27.17
2018-11-04T09:54:30.927Z,28.03
2018-11-04T09:56:59.822Z,27.73
2018-11-04T09:59:28.884Z,28.07
2018-11-04T10:01:57.721Z,28.20
2018-11-04T10:04:26.457Z,26.90
2018-11-04T10:06:55.152Z,27.87
2018-11-04T10:09:24.077Z,28.27
2018-11-04T10:11:53.226Z,26.07
2018-11-04T10:14:22.322Z,27.50
2018-11-04T10:16:51.426Z,25.97
2018-11-04T10:19:20.661Z,26.37
2018-11-04T10:21:49.052Z,24.40
2018-11-04T10:24:17.918Z,25.30
2018-11-04T10:26:46.898Z,25.23
2018-11-04T10:29:15.725Z,25.73
2018-11-04T10:31:44.503Z,24.63
2018-11-04T10:34:13.202Z,25.07
2018-11-04T10:36:42.340Z,24.80
2018-11-04T10:39:12.657Z,23.13
2018-11-04T10:41:42.475Z,23.07
2018-11-04T10:44:11.425Z,23.83
2018-11-04T10:46:40.248Z,23.17
2018-11-04T10:49:09.346Z,22.40
2018-11-04T10:51:39.106Z,21.43
2018-11-04T10:54:07.860Z,21.33
2018-11-04T10:56:36.773Z,21.30
2018-11-04T10:59:05.918Z,20.33
2018-11-04T11:01:34.613Z,21.23
2018-11-04T11:04:03.652Z,24.77
2018-11-04T11:06:32.676Z,24.00
2018-11-04T11:09:01.532Z,22.13
2018-11-04T11:11:30.532Z,22.27
2018-11-04T11:13:59.494Z,18.70
2018-11-04T11:16:28.266Z,16.67
2018-11-04T11:18:57.168Z,17.97
2018-11-04T11:21:26.542Z,16.97
2018-11-04T11:23:55.481Z,16.43
2018-11-04T11:26:24.762Z,17.30
2018-11-04T11:28:53.703Z,16.33
2018-11-04T11:31:22.526Z,15.73
2018-11-04T11:33:51.304Z,16.50
2018-11-04T11:36:20.617Z,15.10
2018-11-04T11:38:49.960Z,15.30
2018-11-04T11:41:18.672Z,14.43
2018-11-04T11:43:47.352Z,15.00
2018-11-04T11:46:16.202Z,14.07
2018-11-04T11:48:44.897Z,13.50
2018-11-04T11:51:13.773Z,13.30
2018-11-04T11:53:42.395Z,11.90
2018-11-04T11:56:11.604Z,12.80
2018-11-04T11:58:40.711Z,12.43
2018-11-04T12:01:09.448Z,11.87
2018-11-04T12:03:38.267Z,11.73
2018-11-04T12:06:07.139Z,11.20
2018-11-04T12:08:36.311Z,10.60
2018-11-04T12:11:05.463Z,11.30
2018-11-04T12:13:34.504Z,11.10
2018-11-04T12:16:03.146Z,10.90
2018-11-04T12:18:31.832Z,11.73
2018-11-04T12:21:01.024Z,10.53
2018-11-04T12:23:30.171Z,10.67
2018-11-04T12:25:58.888Z,11.43
2018-11-04T12:28:27.743Z,10.33
2018-11-04T12:30:56.492Z,10.70
2018-11-04T12:33:25.255Z,10.97
2018-11-04T12:35:54.242Z,11.23
2018-11-04T12:38:23.326Z,9.90
2018-11-04T12:40:52.086Z,10.10
2018-11-04T12:43:21.061Z,9.20
2018-11-04T12:45:50.261Z,8.97
2018-11-04T12:48:19.302Z,9.23
2018-11-04T12:50:48.300Z,9.93
2018-11-04T12:53:17.110Z,9.80
2018-11-04T12:55:46.142Z,8.73
2018-11-04T12:58:15.267Z,8.10
2018-11-04T13:00:44.122Z,8.37
2018-11-04T13:03:12.883Z,8.23
2018-11-04T13:05:41.801Z,8.70
2018-11-04T13:08:10.597Z,7.93
2018-11-04T13:10:39.369Z,7.70
2018-11-04T13:13:08.315Z,7.07
2018-11-04T13:15:37.077Z,6.87
2018-11-04T13:18:06.390Z,8.30
2018-11-04T13:20:35.471Z,6.97
2018-11-04T13:23:04.808Z,5.70
2018-11-04T13:25:33.633Z,6.40
2018-11-04T13:28:02.996Z,6.40
2018-11-04T13:30:31.737Z,6.07
2018-11-04T13:33:00.471Z,6.30
2018-11-04T13:35:29.573Z,6.10
2018-11-04T13:37:58.692Z,6.83
2018-11-04T13:40:27.530Z,7.50
2018-11-04T13:42:56.371Z,6.40
2018-11-04T13:45:25.191Z,6.27
2018-11-04T13:47:54.461Z,7.30
2018-11-04T13:50:23.892Z,6.20
2018-11-04T13:52:52.989Z,6.30
2018-11-04T13:55:21.766Z,6.20
2018-11-04T13:57:50.895Z,6.20
2018-11-04T14:00:19.902Z,6.03
2018-11-04T14:02:49.593Z,6.00
2018-11-04T14:05:18.421Z,6.93
2018-11-04T14:07:47.313Z,5.70
2018-11-04T14:10:16.771Z,6.23
2018-11-04T14:12:46.289Z,5.40
2018-11-04T14:15:15.476Z,6.10
2018-11-04T14:17:44.143Z,5.77
2018-11-04T14:20:13.623Z,6.73
2018-11-04T14:22:43.013Z,6.83
2018-11-04T14:25:12.466Z,6.93
2018-11-04T14:27:41.412Z,9.87
2018-11-04T14:30:12.536Z,8.10
2018-11-04T14:32:41.796Z,6.53
2018-11-04T14:35:11.647Z,6.00
2018-11-04T14:37:41.927Z,6.30
2018-11-04T14:40:12.909Z,6.13
2018-11-04T14:42:42.519Z,7.50
2018-11-04T14:45:11.743Z,7.73
2018-11-04T14:47:40.895Z,7.00
2018-11-04T14:50:16.047Z,5.67
2018-11-04T14:52:44.862Z,5.17
2018-11-04T14:55:13.574Z,6.17
2018-11-04T14:57:42.687Z,5.63
2018-11-04T15:00:13.804Z,5.07
2018-11-04T15:02:42.683Z,7.30
2018-11-04T15:05:11.694Z,7.17
2018-11-04T15:07:40.705Z,7.47
2018-11-04T15:10:11.645Z,8.00
2018-11-04T15:12:40.769Z,6.40
2018-11-04T15:15:12.163Z,5.47
2018-11-04T15:17:41.353Z,6.03
2018-11-04T15:20:10.836Z,6.30
2018-11-04T15:22:42.278Z,6.03
2018-11-04T15:25:11.211Z,5.83
2018-11-04T15:27:39.936Z,6.77
2018-11-04T15:30:10.313Z,6.80
2018-11-04T15:32:39.144Z,5.87
2018-11-04T15:35:08.263Z,5.97
2018-11-04T15:37:37.127Z,6.80
2018-11-04T15:40:07.498Z,6.33
2018-11-04T15:42:36.293Z,6.43
2018-11-04T15:45:06.302Z,6.17
2018-11-04T15:47:35.202Z,6.97
2018-11-04T15:50:04.479Z,6.73
2018-11-04T15:52:33.294Z,8.90
2018-11-04T15:55:02.159Z,8.60
2018-11-04T15:57:31.064Z,8.13
2018-11-04T16:00:00.030Z,7.07
2018-11-04T16:02:29.393Z,6.87
2018-11-04T16:04:58.174Z,8.30
2018-11-04T16:07:26.972Z,8.07
2018-11-04T16:09:55.909Z,7.90
2018-11-04T16:12:25.106Z,7.57
2018-11-04T16:14:54.130Z,8.17
2018-11-04T16:17:22.998Z,8.40
2018-11-04T16:19:51.958Z,8.23
2018-11-04T16:22:21.009Z,8.60
2018-11-04T16:24:49.699Z,8.33
2018-11-04T16:27:18.592Z,8.40
2018-11-04T16:29:47.473Z,8.53
2018-11-04T16:32:16.372Z,9.07
2018-11-04T16:34:45.330Z,9.10
2018-11-04T16:37:14.464Z,9.53
2018-11-04T16:39:43.092Z,8.83
2018-11-04T16:42:12.035Z,8.87
2018-11-04T16:44:41.212Z,9.03
2018-11-04T16:47:09.954Z,8.67
2018-11-04T16:49:38.873Z,8.17
2018-11-04T16:52:07.847Z,7.87
2018-11-04T16:54:37.043Z,8.10
2018-11-04T16:57:09.368Z,8.10
2018-11-04T16:59:38.835Z,7.47
2018-11-04T17:02:08.337Z,7.63
2018-11-04T17:04:37.616Z,8.00
2018-11-04T17:07:06.331Z,8.23
2018-11-04T17:09:35.373Z,7.40
2018-11-04T17:12:04.640Z,8.23
2018-11-04T17:14:33.326Z,6.97
2018-11-04T17:17:02.027Z,6.97
2018-11-04T17:19:31.278Z,7.63
2018-11-04T17:22:00.420Z,8.17
2018-11-04T17:24:29.407Z,8.30
2018-11-04T17:26:58.238Z,7.40
2018-11-04T17:29:27.277Z,8.13
2018-11-04T17:31:55.923Z,10.07
2018-11-04T17:34:24.857Z,12.70
2018-11-04T17:36:54.075Z,11.60
2018-11-04T17:39:23.092Z,11.83
2018-11-04T17:41:51.949Z,11.40
2018-11-04T17:44:20.957Z,11.47
2018-11-04T17:46:49.639Z,9.77
2018-11-04T17:49:18.544Z,10.93
2018-11-04T17:51:47.385Z,13.70
2018-11-04T17:54:16.460Z,10.73
2018-11-04T17:56:45.656Z,10.30
2018-11-04T17:59:14.517Z,13.27
2018-11-04T18:01:43.563Z,12.97
2018-11-04T18:04:12.622Z,13.93
2018-11-04T18:06:41.595Z,13.30
2018-11-04T18:09:10.894Z,16.10
2018-11-04T18:11:40.001Z,24.70
2018-11-04T18:14:09.278Z,14.83
2018-11-04T18:16:38.343Z,12.40
2018-11-04T18:19:07.749Z,12.27
2018-11-04T18:21:36.855Z,12.77
2018-11-04T18:24:05.987Z,13.20
2018-11-04T18:26:34.928Z,12.60
2018-11-04T18:29:03.958Z,11.90
2018-11-04T18:31:32.921Z,12.30
2018-11-04T18:34:01.731Z,11.53
2018-11-04T18:36:30.972Z,11.30
2018-11-04T18:39:00.054Z,12.83
2018-11-04T18:41:29.164Z,12.23
2018-11-04T18:43:58.099Z,12.10
2018-11-04T18:46:26.711Z,11.67
2018-11-04T18:48:55.537Z,12.93
2018-11-04T18:51:24.778Z,12.17
2018-11-04T18:53:53.778Z,12.53
2018-11-04T18:56:22.933Z,12.30
2018-11-04T18:58:51.921Z,11.93
2018-11-04T19:01:20.708Z,12.13
2018-11-04T19:03:49.408Z,12.10
2018-11-04T19:06:18.190Z,12.10
2018-11-04T19:08:47.157Z,11.77
2018-11-04T19:11:16.559Z,13.00
2018-11-04T19:13:45.494Z,11.97
2018-11-04T19:16:14.524Z,13.30
2018-11-04T19:18:43.434Z,13.77
2018-11-04T19:21:12.424Z,13.50
2018-11-04T19:23:41.543Z,13.67
2018-11-04T19:26:10.682Z,15.10
2018-11-04T19:28:39.339Z,14.17
2018-11-04T19:31:08.244Z,14.90
2018-11-04T19:33:37.295Z,13.57
2018-11-04T19:36:06.635Z,15.20
2018-11-04T19:38:35.895Z,13.63
2018-11-04T19:41:05.025Z,13.07
2018-11-04T19:43:33.819Z,12.57
2018-11-04T19:46:02.639Z,12.77
2018-11-04T19:48:31.856Z,13.10
2018-11-04T19:51:00.960Z,13.53
2018-11-04T19:53:30.183Z,12.77
2018-11-04T19:55:59.094Z,12.57
2018-11-04T19:58:27.972Z,11.90
2018-11-04T20:00:56.903Z,11.83
2018-11-04T20:03:25.627Z,11.43
2018-11-04T20:05:54.302Z,11.17
2018-11-04T20:08:23.163Z,12.50
2018-11-04T20:10:51.830Z,11.73
2018-11-04T20:13:26.076Z,13.73
2018-11-04T20:15:54.880Z,13.83
2018-11-04T20:18:28.881Z,11.13
2018-11-04T20:20:57.672Z,11.87
2018-11-04T20:23:26.368Z,11.70
2018-11-04T20:26:04.959Z,11.43
2018-11-04T20:28:33.590Z,11.33
2018-11-04T20:31:02.483Z,10.43
2018-11-04T20:33:31.657Z,10.83
2018-11-04T20:36:00.710Z,11.57
2018-11-04T20:38:34.697Z,10.83
2018-11-04T20:41:09.159Z,10.73
2018-11-04T20:43:38.012Z,11.23
2018-11-04T20:46:06.853Z,11.70
2018-11-04T20:48:41.108Z,10.87
2018-11-04T20:51:10.158Z,9.90
2018-11-04T20:53:38.929Z,10.77
2018-11-04T20:56:12.704Z,11.43
2018-11-04T20:58:41.554Z,9.90
2018-11-04T21:01:10.512Z,11.47
2018-11-04T21:03:39.918Z,11.20
2018-11-04T21:06:09.105Z,11.27
2018-11-04T21:08:38.284Z,10.50
2018-11-04T21:11:07.353Z,11.30
2018-11-04T21:13:36.332Z,11.77
2018-11-04T21:16:05.383Z,11.10
2018-11-04T21:18:34.103Z,10.60
2018-11-04T21:21:03.204Z,10.80
2018-11-04T21:23:31.929Z,10.57
2018-11-04T21:26:00.693Z,10.07
2018-11-04T21:28:29.890Z,10.37
2018-11-04T21:30:59.002Z,10.87
2018-11-04T21:33:27.759Z,9.97
2018-11-04T21:35:56.733Z,10.00
2018-11-04T21:38:25.669Z,10.97
2018-11-04T21:40:54.601Z,10.03
2018-11-04T21:43:23.905Z,9.40
2018-11-04T21:45:52.453Z,9.97
2018-11-04T21:48:21.543Z,11.17
2018-11-04T21:50:50.302Z,11.40
2018-11-04T21:53:19.228Z,11.20
2018-11-04T21:55:47.975Z,12.67
2018-11-04T21:58:16.824Z,13.17
2018-11-04T22:00:45.878Z,12.10
2018-11-04T22:03:14.877Z,14.57
2018-11-04T22:05:43.603Z,16.30
2018-11-04T22:08:12.303Z,14.53
2018-11-04T22:10:41.435Z,14.07
2018-11-04T22:13:10.062Z,12.67
2018-11-04T22:15:38.819Z,10.80
2018-11-04T22:18:07.744Z,13.23
2018-11-04T22:20:36.808Z,14.47
2018-11-04T22:23:05.760Z,11.60
2018-11-04T22:25:34.490Z,11.77
2018-11-04T22:28:03.465Z,11.30
2018-11-04T22:30:32.384Z,9.87
2018-11-04T22:33:01.260Z,9.33
2018-11-04T22:35:30.043Z,10.90
2018-11-04T22:37:58.859Z,9.87
2018-11-04T22:40:27.609Z,11.13
2018-11-04T22:42:56.268Z,11.27
2018-11-04T22:45:24.913Z,10.33
2018-11-04T22:47:54.089Z,11.77
2018-11-04T22:50:23.185Z,10.77
2018-11-04T22:52:51.899Z,10.73
2018-11-04T22:55:20.784Z,11.90
2018-11-04T22:57:49.808Z,12.00
2018-11-04T23:00:23.758Z,11.57
2018-11-04T23:02:52.427Z,11.83
2018-11-04T23:05:27.064Z,11.17
2018-11-04T23:07:55.884Z,10.97
2018-11-04T23:10:24.598Z,10.90
2018-11-04T23:12:53.624Z,10.00
2018-11-04T23:15:22.463Z,10.20
2018-11-04T23:17:51.426Z,10.47
2018-11-04T23:20:20.113Z,10.57
2018-11-04T23:22:49.130Z,10.10
2018-11-04T23:25:18.058Z,10.47
2018-11-04T23:27:46.705Z,10.20
2018-11-04T23:30:16.724Z,10.13
2018-11-04T23:32:46.254Z,9.93
2018-11-04T23:35:15.274Z,10.87
2018-11-04T23:37:44.728Z,10.53
2018-11-04T23:40:13.749Z,11.27
2018-11-04T23:42:42.759Z,10.93
2018-11-04T23:45:12.970Z,11.10
2018-11-04T23:47:41.888Z,10.53
2018-11-04T23:50:13.868Z,9.10
2018-11-04T23:52:43.090Z,9.33
2018-11-04T23:55:12.782Z,10.80
2018-11-04T23:57:41.403Z,9.53
